Time;durP1;ratioP1;P1;durP2;ratioP2;P2;SDS_P1;SDS_P2;PMS_P1;PMS_P2;Temp;Humidity;BMP_temperature;BMP_pressure;BME280_temperature;BME280_humidity;BME280_pressure;Samples;Min_cycle;Max_cycle;Signal;HPM_P1;HPM_P2
2021/01/15 00:01:18;;;;;;;1.67;0.68;;;10.20;77.70;;;;;;5092294;28;20039;-68
2021/01/15 00:04:22;;;;;;;1.55;0.80;;;10.20;77.90;;;;;;5092114;28;20055;-68
2021/01/15 00:07:30;;;;;;;2.03;1.00;;;10.20;78.30;;;;;;5092117;28;20040;-68
2021/01/15 00:10:34;;;;;;;1.90;0.80;;;10.10;78.40;;;;;;5091989;28;20047;-68
2021/01/15 00:13:38;;;;;;;0.65;0.63;;;10.20;78.10;;;;;;5091305;28;20047;-68
2021/01/15 00:16:42;;;;;;;3.08;0.80;;;10.10;78.80;;;;;;5091883;28;20392;-68
2021/01/15 00:19:45;;;;;;;0.98;0.70;;;10.10;78.90;;;;;;5091851;28;20039;-68
2021/01/15 00:22:49;;;;;;;2.90;0.77;;;10.10;78.80;;;;;;5091839;28;20499;-68
2021/01/15 00:25:54;;;;;;;4.38;0.60;;;10.00;78.80;;;;;;5091896;28;20047;-69
2021/01/15 00:28:58;;;;;;;2.05;0.63;;;10.00;79.40;;;;;;5091457;28;20047;-68
2021/01/15 00:32:02;;;;;;;1.95;0.55;;;10.00;78.90;;;;;;5091822;28;20403;-68
2021/01/15 00:35:08;;;;;;;0.52;0.40;;;10.00;78.70;;;;;;5091497;28;20047;-69
2021/01/15 00:38:12;;;;;;;0.93;0.43;;;10.00;79.00;;;;;;5090210;28;20054;-68
2021/01/15 00:41:16;;;;;;;0.73;0.30;;;10.00;78.40;;;;;;5091645;28;20047;-68
2021/01/15 00:44:20;;;;;;;1.02;0.43;;;10.10;77.90;;;;;;5091320;28;20059;-68
2021/01/15 00:47:24;;;;;;;0.60;0.40;;;10.10;78.50;;;;;;5090981;28;20043;-68
2021/01/15 00:50:28;;;;;;;1.25;0.50;;;10.10;77.90;;;;;;5091282;28;20043;-68
2021/01/15 00:53:32;;;;;;;2.67;0.70;;;10.10;77.70;;;;;;5090684;28;20506;-68
2021/01/15 00:56:36;;;;;;;1.13;0.60;;;10.20;76.90;;;;;;5091028;28;20494;-68
2021/01/15 00:59:45;;;;;;;0.88;0.50;;;10.20;76.70;;;;;;5091324;28;20050;-68
2021/01/15 01:03:24;;;;;;;1.33;0.65;;;10.20;77.50;;;;;;5090202;28;20046;-68
2021/01/15 01:06:30;;;;;;;0.63;0.50;;;10.20;77.80;;;;;;5091227;28;20399;-68
2021/01/15 01:09:34;;;;;;;2.25;0.80;;;10.20;78.20;;;;;;5091180;28;20038;-68
2021/01/15 01:12:42;;;;;;;2.58;0.60;;;10.20;77.40;;;;;;5090893;28;20043;-68
2021/01/15 01:15:46;;;;;;;1.20;0.60;;;10.20;78.40;;;;;;5091071;28;20047;-68
2021/01/15 01:18:50;;;;;;;1.88;0.80;;;10.20;78.10;;;;;;5090818;28;20399;-68
2021/01/15 01:21:53;;;;;;;1.60;0.80;;;10.10;77.50;;;;;;5090783;28;20039;-69
2021/01/15 01:24:58;;;;;;;1.77;0.90;;;10.20;76.50;;;;;;5090680;28;20165;-68
2021/01/15 01:28:02;;;;;;;1.65;0.80;;;10.10;75.20;;;;;;5095138;28;20039;-68
2021/01/15 01:31:06;;;;;;;2.50;0.90;;;10.10;74.80;;;;;;5095069;28;20051;-69
2021/01/15 01:34:10;;;;;;;1.25;0.90;;;10.00;73.50;;;;;;5095021;28;20043;-68
2021/01/15 01:37:14;;;;;;;1.63;0.80;;;10.10;72.70;;;;;;5094524;28;20423;-68
2021/01/15 01:40:18;;;;;;;2.75;1.10;;;10.00;72.50;;;;;;5094983;28;20035;-68
2021/01/15 01:43:22;;;;;;;4.50;0.80;;;10.10;70.30;;;;;;5094786;28;20403;-68
2021/01/15 01:46:26;;;;;;;3.90;1.23;;;10.00;69.80;;;;;;5094142;28;20047;-68
2021/01/15 01:49:31;;;;;;;1.65;0.80;;;10.10;68.90;;;;;;5094759;28;20051;-68
2021/01/15 01:52:36;;;;;;;1.85;1.00;;;10.10;68.50;;;;;;5094409;28;20125;-69
2021/01/15 01:55:41;;;;;;;1.23;0.80;;;10.10;67.70;;;;;;5094528;28;20090;-68
2021/01/15 01:58:45;;;;;;;3.88;1.00;;;10.10;67.80;;;;;;5094109;28;20411;-68
2021/01/15 02:01:50;;;;;;;1.75;0.90;;;10.00;68.30;;;;;;5094389;28;20050;-68
2021/01/15 02:04:54;;;;;;;1.45;0.80;;;10.10;67.50;;;;;;5094241;28;20410;-68
2021/01/15 02:07:58;;;;;;;1.92;0.93;;;10.00;67.70;;;;;;5094063;28;20400;-68
2021/01/15 02:11:18;;;;;;;1.58;0.90;;;10.00;67.90;;;;;;5094067;28;20212;-68
2021/01/15 02:14:39;;;;;;;1.92;0.90;;;10.00;67.10;;;;;;5094512;28;20495;-68
2021/01/15 02:17:54;;;;;;;1.50;0.70;;;10.00;66.50;;;;;;5093662;28;20046;-68
2021/01/15 02:21:21;;;;;;;3.22;1.00;;;10.00;66.20;;;;;;5093788;28;20043;-68
2021/01/15 02:24:34;;;;;;;1.85;0.80;;;10.00;66.30;;;;;;5094133;28;20051;-68
2021/01/15 02:28:05;;;;;;;1.67;0.88;;;10.10;66.30;;;;;;5094308;28;20047;-68
2021/01/15 02:31:49;;;;;;;4.72;1.00;;;10.10;66.50;;;;;;5094084;28;20047;-68
2021/01/15 02:35:09;;;;;;;4.55;1.10;;;10.10;66.60;;;;;;5094146;28;20043;-68
2021/01/15 02:38:30;;;;;;;2.25;0.80;;;10.10;65.70;;;;;;5093000;28;20047;-68
2021/01/15 02:41:35;;;;;;;1.15;0.60;;;10.10;66.30;;;;;;5093906;28;20070;-68
2021/01/15 02:44:41;;;;;;;1.55;1.00;;;10.00;66.10;;;;;;5093329;28;20055;-69
2021/01/15 02:47:49;;;;;;;2.78;0.90;;;10.00;67.10;;;;;;5093467;28;20502;-68
2021/01/15 02:50:53;;;;;;;1.63;0.70;;;10.00;66.50;;;;;;5093275;28;20043;-68
2021/01/15 02:53:57;;;;;;;3.58;1.00;;;10.00;66.70;;;;;;5093816;28;20051;-68
2021/01/15 02:57:01;;;;;;;3.03;1.13;;;10.00;66.20;;;;;;5093518;28;20043;-68
2021/01/15 03:00:08;;;;;;;3.72;1.05;;;10.00;66.70;;;;;;5093346;28;20047;-68
2021/01/15 03:03:32;;;;;;;3.50;1.08;;;10.10;66.90;;;;;;5093175;28;20403;-68
2021/01/15 03:06:49;;;;;;;1.75;1.08;;;10.10;66.70;;;;;;5093159;28;20054;-68
2021/01/15 03:09:56;;;;;;;1.52;1.00;;;10.10;67.10;;;;;;5093493;28;20039;-68
2021/01/15 03:13:03;;;;;;;2.58;0.60;;;10.10;66.90;;;;;;5093243;28;20047;-68
2021/01/15 03:16:08;;;;;;;4.20;1.08;;;10.00;66.80;;;;;;5093281;28;20051;-68
2021/01/15 03:19:13;;;;;;;1.55;0.80;;;10.10;66.90;;;;;;5092828;28;20110;-68
2021/01/15 03:22:19;;;;;;;2.83;1.17;;;9.90;66.90;;;;;;5093124;28;20503;-68
2021/01/15 03:25:23;;;;;;;2.15;0.98;;;10.00;66.30;;;;;;5092672;28;20043;-68
2021/01/15 03:28:27;;;;;;;3.75;1.00;;;9.90;65.40;;;;;;5092813;28;20043;-68
2021/01/15 03:31:31;;;;;;;9.82;1.17;;;10.00;65.10;;;;;;5092990;28;20036;-68
2021/01/15 03:34:35;;;;;;;2.20;0.98;;;10.00;64.80;;;;;;5092806;28;20039;-68
2021/01/15 03:37:39;;;;;;;2.05;1.02;;;10.00;64.60;;;;;;5092184;28;20063;-68
2021/01/15 03:40:45;;;;;;;1.85;0.70;;;10.00;64.60;;;;;;5092715;28;20043;-68
2021/01/15 03:43:49;;;;;;;6.32;0.80;;;9.90;64.40;;;;;;5092249;28;20047;-68
2021/01/15 03:46:54;;;;;;;1.25;0.80;;;10.00;64.20;;;;;;5092519;28;20044;-68
2021/01/15 03:49:58;;;;;;;2.70;0.80;;;10.00;64.10;;;;;;5092073;28;20035;-69
2021/01/15 03:53:02;;;;;;;2.17;0.73;;;10.00;63.40;;;;;;5092190;28;20043;-69
2021/01/15 03:56:06;;;;;;;1.73;0.80;;;10.00;63.90;;;;;;5092467;28;20063;-68
2021/01/15 03:59:11;;;;;;;2.55;0.90;;;10.00;63.00;;;;;;5092677;28;20051;-68
2021/01/15 04:02:15;;;;;;;1.25;0.80;;;10.00;63.90;;;;;;5091935;28;20043;-68
2021/01/15 04:05:19;;;;;;;3.40;0.82;;;10.00;63.60;;;;;;5091092;28;20055;-68
2021/01/15 04:08:22;;;;;;;2.28;1.00;;;10.00;64.10;;;;;;5091926;28;20384;-68
2021/01/15 04:11:26;;;;;;;1.73;0.70;;;10.10;64.20;;;;;;5092090;28;20110;-68
2021/01/15 04:14:30;;;;;;;2.13;0.70;;;10.00;63.70;;;;;;5091982;28;20055;-68
2021/01/15 04:17:35;;;;;;;2.13;0.80;;;10.00;64.50;;;;;;5091968;28;20039;-68
2021/01/15 04:20:39;;;;;;;2.28;0.80;;;10.00;64.80;;;;;;5091875;28;20039;-68
2021/01/15 04:23:46;;;;;;;4.03;0.82;;;10.00;64.50;;;;;;5090844;28;20043;-68
2021/01/15 04:26:52;;;;;;;2.05;1.00;;;9.90;64.80;;;;;;5092004;28;20073;-68
2021/01/15 04:29:56;;;;;;;2.20;0.98;;;9.90;64.90;;;;;;5091893;28;20059;-68
2021/01/15 04:33:00;;;;;;;2.10;0.98;;;10.00;65.60;;;;;;5091832;28;20476;-68
2021/01/15 04:36:06;;;;;;;2.78;0.70;;;10.00;64.80;;;;;;5091372;28;20047;-68
2021/01/15 04:39:10;;;;;;;3.58;1.08;;;10.00;64.40;;;;;;5091701;28;20047;-68
2021/01/15 04:42:16;;;;;;;2.00;0.80;;;10.00;65.00;;;;;;5091504;28;20502;-68
2021/01/15 04:45:20;;;;;;;3.88;0.88;;;9.90;65.30;;;;;;5091344;28;20051;-68
2021/01/15 04:48:26;;;;;;;2.22;1.10;;;9.90;65.60;;;;;;5091540;28;20044;-68
2021/01/15 04:51:34;;;;;;;3.70;0.90;;;9.90;64.50;;;;;;5091161;28;20044;-68
2021/01/15 04:54:45;;;;;;;1.88;1.00;;;9.90;64.30;;;;;;5091294;28;20032;-68
2021/01/15 04:57:54;;;;;;;3.65;1.02;;;9.90;65.00;;;;;;5091523;28;20044;-68
2021/01/15 05:00:58;;;;;;;5.00;1.20;;;9.90;65.30;;;;;;5090104;28;20036;-68
2021/01/15 05:04:13;;;;;;;3.60;1.08;;;9.90;65.50;;;;;;5091177;28;20475;-68
2021/01/15 05:07:18;;;;;;;3.22;0.82;;;9.90;65.10;;;;;;5091682;28;20031;-68
2021/01/15 05:10:28;;;;;;;1.38;0.75;;;9.90;66.00;;;;;;5091330;28;20036;-68
2021/01/15 05:13:36;;;;;;;3.17;0.88;;;9.90;65.10;;;;;;5090578;28;20044;-68
2021/01/15 05:16:44;;;;;;;4.80;1.10;;;9.90;66.50;;;;;;5091117;28;20044;-68
2021/01/15 05:19:53;;;;;;;2.00;1.05;;;9.90;66.70;;;;;;5091312;28;20040;-68
2021/01/15 05:23:04;;;;;;;2.70;0.80;;;9.80;67.40;;;;;;5090954;28;20032;-68
2021/01/15 05:26:08;;;;;;;1.13;0.80;;;9.80;68.40;;;;;;5090939;28;20047;-68
2021/01/15 05:29:14;;;;;;;1.52;1.10;;;9.80;67.80;;;;;;5091180;28;20460;-68
2021/01/15 05:32:29;;;;;;;0.70;0.57;;;9.70;69.20;;;;;;5090866;28;20040;-68
2021/01/15 05:35:47;;;;;;;4.00;0.88;;;9.70;70.90;;;;;;5091115;28;20066;-68
2021/01/15 05:39:09;;;;;;;5.10;1.33;;;9.70;70.90;;;;;;5091020;28;20044;-68
2021/01/15 05:42:14;;;;;;;3.72;1.20;;;9.70;71.20;;;;;;5091100;28;20039;-68
2021/01/15 05:45:18;;;;;;;5.35;1.00;;;9.60;71.50;;;;;;5090773;28;20048;-68
2021/01/15 05:48:28;;;;;;;2.60;1.05;;;9.60;71.70;;;;;;5090889;28;20032;-68
2021/01/15 05:51:34;;;;;;;3.67;1.40;;;9.60;71.20;;;;;;5090853;28;20047;-68
2021/01/15 05:54:38;;;;;;;2.47;1.15;;;9.60;72.30;;;;;;5090920;28;20389;-68
2021/01/15 05:57:42;;;;;;;4.95;1.00;;;9.60;70.40;;;;;;5090438;28;20040;-68
2021/01/15 06:00:51;;;;;;;2.38;1.00;;;9.60;69.20;;;;;;5090634;28;20048;-68
2021/01/15 06:03:55;;;;;;;5.20;1.63;;;9.70;68.30;;;;;;5090427;28;20032;-68
2021/01/15 06:07:01;;;;;;;8.10;3.05;;;9.60;68.40;;;;;;5090714;28;20487;-68
2021/01/15 06:10:06;;;;;;;7.50;2.70;;;9.60;67.90;;;;;;5090535;28;20036;-68
2021/01/15 06:13:10;;;;;;;5.22;1.75;;;9.60;68.40;;;;;;5094026;28;20040;-68
2021/01/15 06:16:19;;;;;;;3.53;1.45;;;9.50;69.40;;;;;;5094176;28;20032;-68
2021/01/15 06:19:23;;;;;;;5.10;1.48;;;9.50;70.20;;;;;;5094223;28;20044;-68
2021/01/15 06:22:43;;;;;;;5.00;1.92;;;9.40;70.10;;;;;;5094027;28;20380;-68
2021/01/15 06:25:59;;;;;;;2.33;1.25;;;9.40;69.30;;;;;;5093808;28;20048;-68
2021/01/15 06:29:07;;;;;;;7.03;1.55;;;9.40;68.90;;;;;;5093886;28;20028;-68
2021/01/15 06:32:12;;;;;;;2.42;1.50;;;9.40;69.80;;;;;;5093358;28;20357;-68
2021/01/15 06:35:31;;;;;;;5.78;1.85;;;9.40;70.00;;;;;;5093646;28;20047;-67
2021/01/15 06:38:36;;;;;;;4.75;1.92;;;9.40;70.50;;;;;;5092901;28;20044;-68
2021/01/15 06:41:41;;;;;;;3.95;1.92;;;9.40;70.40;;;;;;5093689;28;20036;-68
2021/01/15 06:44:53;;;;;;;16.48;6.63;;;9.40;70.20;;;;;;5093719;28;20040;-67
2021/01/15 06:48:18;;;;;;;6.93;2.30;;;9.50;70.50;;;;;;5093456;28;20391;-68
2021/01/15 06:51:22;;;;;;;6.78;1.60;;;9.50;70.10;;;;;;5093436;28;20396;-69
2021/01/15 06:54:45;;;;;;;4.97;1.90;;;9.40;69.70;;;;;;5093774;28;20047;-61
2021/01/15 06:57:50;;;;;;;5.15;1.80;;;9.50;69.70;;;;;;5093277;28;20036;-61
2021/01/15 07:01:23;;;;;;;8.27;1.90;;;9.60;68.80;;;;;;5093465;28;20040;-61
2021/01/15 07:04:29;;;;;;;9.75;4.07;;;9.60;68.40;;;;;;5092383;28;20040;-60
2021/01/15 07:07:33;;;;;;;6.10;2.13;;;9.60;71.90;;;;;;5093417;28;20373;-62
2021/01/15 07:10:37;;;;;;;7.38;2.08;;;9.70;69.30;;;;;;5093434;28;20456;-62
2021/01/15 07:13:46;;;;;;;3.88;1.90;;;9.80;69.10;;;;;;5093696;28;20044;-61
2021/01/15 07:16:54;;;;;;;9.18;3.47;;;9.80;68.60;;;;;;5092430;28;20044;-62
2021/01/15 07:20:15;;;;;;;8.68;2.15;;;9.70;68.40;;;;;;5091383;28;20392;-62
2021/01/15 07:23:41;;;;;;;3.10;2.40;;;9.70;69.20;;;;;;5091049;28;20472;-66
2021/01/15 07:26:52;;;;;;;7.10;2.10;;;9.70;69.50;;;;;;5092453;28;20044;-63
2021/01/15 07:29:57;;;;;;;12.98;2.10;;;9.70;69.70;;;;;;5093063;28;20036;-61
2021/01/15 07:33:06;;;;;;;6.65;2.63;;;9.70;69.80;;;;;;5092666;28;20047;-62
2021/01/15 07:36:37;;;;;;;7.20;2.20;;;9.70;69.50;;;;;;5093149;28;20036;-63
2021/01/15 07:40:03;;;;;;;8.95;2.45;;;9.70;70.00;;;;;;5093027;28;20036;-62
2021/01/15 07:43:33;;;;;;;9.95;2.90;;;9.70;69.10;;;;;;5092723;28;20036;-64
2021/01/15 07:46:47;;;;;;;9.68;3.15;;;9.80;69.70;;;;;;5092424;28;20052;-64
2021/01/15 07:49:51;;;;;;;9.90;2.70;;;9.80;69.70;;;;;;5092603;28;20036;-64
2021/01/15 07:53:20;;;;;;;10.23;3.67;;;9.90;69.30;;;;;;5092245;28;20036;-65
2021/01/15 07:56:28;;;;;;;6.47;2.92;;;9.90;68.00;;;;;;5092179;28;20043;-63
2021/01/15 07:59:32;;;;;;;7.22;2.67;;;9.90;67.50;;;;;;5092431;28;20043;-64
2021/01/15 08:02:36;;;;;;;8.00;3.20;;;9.90;67.00;;;;;;5091935;28;20278;-65
2021/01/15 08:05:43;;;;;;;9.48;3.40;;;10.00;66.80;;;;;;5091971;28;20504;-62
2021/01/15 08:09:00;;;;;;;10.88;3.80;;;10.00;67.20;;;;;;5091961;28;20043;-64
2021/01/15 08:12:04;;;;;;;7.65;3.50;;;10.00;67.30;;;;;;5091899;28;20475;-64
2021/01/15 08:15:31;;;;;;;10.65;5.90;;;10.00;66.70;;;;;;5092209;28;20522;-64
2021/01/15 08:18:36;;;;;;;5.50;2.78;;;10.00;65.50;;;;;;5091832;28;20059;-64
2021/01/15 08:21:44;;;;;;;8.68;2.50;;;10.00;65.10;;;;;;5091847;28;20047;-64
2021/01/15 08:24:50;;;;;;;5.70;2.50;;;10.00;64.80;;;;;;5091507;28;20047;-64
2021/01/15 08:27:55;;;;;;;5.20;2.03;;;10.10;64.70;;;;;;5091365;28;20047;-64
2021/01/15 08:31:06;;;;;;;4.57;2.00;;;10.10;63.80;;;;;;5091657;28;20356;-64
2021/01/15 08:34:12;;;;;;;5.35;1.55;;;10.10;64.40;;;;;;5090585;28;20051;-64
2021/01/15 08:37:16;;;;;;;3.85;2.00;;;10.10;66.00;;;;;;5091085;28;20063;-64
2021/01/15 08:40:28;;;;;;;6.45;1.90;;;10.00;68.90;;;;;;5091429;28;20055;-64
2021/01/15 08:43:38;;;;;;;10.45;2.25;;;9.90;70.20;;;;;;5091512;28;20039;-63
2021/01/15 08:46:42;;;;;;;8.35;2.30;;;9.70;71.70;;;;;;5091321;28;20063;-63
2021/01/15 08:49:55;;;;;;;7.57;2.88;;;9.70;72.10;;;;;;5091206;28;20036;-64
2021/01/15 08:53:01;;;;;;;5.80;2.17;;;9.60;72.10;;;;;;5091003;28;20040;-63
2021/01/15 08:56:06;;;;;;;5.43;2.20;;;9.60;73.00;;;;;;5091133;28;20040;-62
2021/01/15 08:59:12;;;;;;;4.55;1.90;;;9.60;72.60;;;;;;5091135;28;20028;-63
2021/01/15 09:02:18;;;;;;;3.58;1.77;;;9.80;72.60;;;;;;5089877;28;20039;-62
2021/01/15 09:05:23;;;;;;;4.38;1.73;;;9.90;70.30;;;;;;5090148;28;20040;-64
2021/01/15 09:08:28;;;;;;;5.38;1.80;;;10.00;70.10;;;;;;5090649;28;20024;-63
2021/01/15 09:11:40;;;;;;;3.53;2.00;;;10.20;68.70;;;;;;5091238;28;20043;-63
2021/01/15 09:14:48;;;;;;;2.28;1.40;;;10.20;67.60;;;;;;5090930;28;20042;-63
2021/01/15 09:17:53;;;;;;;5.20;1.73;;;10.30;68.70;;;;;;5091079;28;20506;-63
2021/01/15 09:20:58;;;;;;;5.72;2.00;;;10.40;68.60;;;;;;5091256;28;20498;-64
2021/01/15 09:24:01;;;;;;;4.25;1.90;;;10.60;67.60;;;;;;5090772;28;20051;-62
2021/01/15 09:27:07;;;;;;;3.60;1.52;;;10.70;67.80;;;;;;5091070;28;20051;-64
2021/01/15 09:30:13;;;;;;;4.32;1.70;;;10.60;65.20;;;;;;5091182;28;20051;-63
2021/01/15 09:33:17;;;;;;;8.90;2.53;;;10.50;65.00;;;;;;5091087;28;20495;-63
2021/01/15 09:36:26;;;;;;;4.00;1.77;;;10.50;66.00;;;;;;5090621;28;20051;-64
2021/01/15 09:39:30;;;;;;;5.10;2.30;;;10.50;65.60;;;;;;5090889;28;20051;-64
2021/01/15 09:42:34;;;;;;;6.65;2.58;;;10.50;64.70;;;;;;5091409;28;20047;-63
2021/01/15 09:45:38;;;;;;;5.10;2.30;;;10.40;64.20;;;;;;5090705;28;20408;-62
2021/01/15 09:48:42;;;;;;;7.25;3.35;;;10.40;64.20;;;;;;5094332;28;20387;-62
2021/01/15 09:51:49;;;;;;;4.18;2.05;;;10.40;64.70;;;;;;5095000;28;20055;-64
2021/01/15 09:54:54;;;;;;;5.65;2.28;;;10.40;64.10;;;;;;5094859;28;20051;-63
2021/01/15 09:57:58;;;;;;;3.92;1.88;;;10.30;62.20;;;;;;5094364;28;20491;-63
2021/01/15 10:01:02;;;;;;;4.85;2.13;;;10.40;61.90;;;;;;5094652;28;20405;-63
2021/01/15 10:04:07;;;;;;;4.97;1.65;;;10.40;62.00;;;;;;5094526;28;20051;-62
2021/01/15 10:07:11;;;;;;;4.93;2.05;;;10.50;61.60;;;;;;5093717;28;20062;-63
2021/01/15 10:10:15;;;;;;;5.50;1.77;;;10.50;62.00;;;;;;5094403;28;20383;-63
2021/01/15 10:13:19;;;;;;;3.05;1.50;;;10.60;59.50;;;;;;5094522;28;20043;-63
2021/01/15 10:16:24;;;;;;;4.47;1.85;;;10.50;59.20;;;;;;5094299;28;20051;-63
2021/01/15 10:19:28;;;;;;;6.18;2.25;;;10.50;59.10;;;;;;5094161;28;20046;-63
2021/01/15 10:22:32;;;;;;;6.50;1.83;;;10.50;59.90;;;;;;5094178;28;20039;-63
2021/01/15 10:25:36;;;;;;;3.97;1.77;;;10.50;60.00;;;;;;5094125;28;20043;-62
2021/01/15 10:28:40;;;;;;;2.97;1.90;;;10.50;60.60;;;;;;5093588;28;20051;-63
2021/01/15 10:31:54;;;;;;;6.00;1.70;;;10.50;59.40;;;;;;5093100;28;20043;-65
2021/01/15 10:34:59;;;;;;;2.70;1.92;;;10.40;65.00;;;;;;5093719;28;20039;-65
2021/01/15 10:38:03;;;;;;;6.30;1.85;;;10.40;58.10;;;;;;5093594;28;20520;-65
2021/01/15 10:41:07;;;;;;;4.38;1.83;;;10.40;57.50;;;;;;5093888;28;20050;-65
2021/01/15 10:44:14;;;;;;;3.22;2.05;;;10.40;56.60;;;;;;5093875;28;20042;-64
2021/01/15 10:47:18;;;;;;;5.95;1.90;;;10.40;56.30;;;;;;5093230;28;20512;-64
2021/01/15 10:50:22;;;;;;;6.38;2.28;;;10.40;56.60;;;;;;5091686;28;20066;-64
2021/01/15 10:53:26;;;;;;;8.85;3.33;;;10.40;56.60;;;;;;5093575;28;20463;-65
2021/01/15 10:56:37;;;;;;;12.43;4.88;;;10.40;57.00;;;;;;5093135;28;20038;-64
2021/01/15 10:59:41;;;;;;;6.22;4.20;;;10.40;57.70;;;;;;5093876;28;20384;-63
2021/01/15 11:02:50;;;;;;;4.25;2.63;;;10.30;59.60;;;;;;5093267;28;20562;-63
2021/01/15 11:05:54;;;;;;;3.88;1.80;;;10.40;57.60;;;;;;5090678;28;20506;-64
2021/01/15 11:08:59;;;;;;;3.95;2.40;;;10.30;56.70;;;;;;5091924;28;20046;-63
2021/01/15 11:12:04;;;;;;;9.55;2.65;;;10.20;58.00;;;;;;5092226;28;20043;-65
2021/01/15 11:15:08;;;;;;;8.35;2.78;;;10.10;63.20;;;;;;5092637;28;20046;-64
2021/01/15 11:18:12;;;;;;;4.65;2.40;;;10.10;66.80;;;;;;5092594;28;20054;-63
2021/01/15 11:21:24;;;;;;;7.97;2.75;;;10.00;66.00;;;;;;5092962;28;20058;-64
2021/01/15 11:24:27;;;;;;;6.30;3.00;;;9.90;66.40;;;;;;5092880;28;20039;-63
2021/01/15 11:27:33;;;;;;;5.93;2.88;;;9.70;67.60;;;;;;5092680;28;20048;-64
2021/01/15 11:30:38;;;;;;;3.03;1.40;;;9.50;69.00;;;;;;5092520;28;20036;-65
2021/01/15 11:33:42;;;;;;;5.32;1.48;;;9.30;71.50;;;;;;5092657;28;20039;-65
2021/01/15 11:36:48;;;;;;;3.78;2.10;;;8.90;69.40;;;;;;5092413;28;20052;-64
2021/01/15 11:39:52;;;;;;;6.70;1.73;;;8.90;73.10;;;;;;5092515;28;20040;-62
2021/01/15 11:42:59;;;;;;;4.20;2.25;;;8.60;70.80;;;;;;5092663;28;20044;-63
2021/01/15 11:46:03;;;;;;;8.32;2.30;;;8.30;76.40;;;;;;5092269;28;20048;-64
2021/01/15 11:49:08;;;;;;;3.90;2.28;;;8.20;76.80;;;;;;5092159;28;20036;-64
2021/01/15 11:52:13;;;;;;;6.00;3.08;;;8.20;77.70;;;;;;5092180;28;20039;-63
2021/01/15 11:55:17;;;;;;;3.13;1.98;;;8.00;77.90;;;;;;5092215;28;20040;-63
2021/01/15 11:58:24;;;;;;;4.95;1.90;;;7.70;81.60;;;;;;5091449;28;20036;-63
2021/01/15 12:01:28;;;;;;;3.65;2.35;;;7.70;80.20;;;;;;5092317;28;20032;-63
2021/01/15 12:04:32;;;;;;;3.35;2.50;;;7.60;81.90;;;;;;5092257;28;20036;-63
2021/01/15 12:07:37;;;;;;;8.52;2.55;;;7.60;82.00;;;;;;5092300;28;20047;-63
2021/01/15 12:10:41;;;;;;;6.88;2.80;;;7.60;83.50;;;;;;5091969;28;20039;-63
2021/01/15 12:13:46;;;;;;;5.18;2.55;;;7.50;84.20;;;;;;5092466;28;20040;-64
2021/01/15 12:16:50;;;;;;;4.82;3.03;;;7.50;83.70;;;;;;5092029;28;20365;-64
2021/01/15 12:19:54;;;;;;;7.82;3.45;;;7.40;87.20;;;;;;5091889;28;20040;-65
2021/01/15 12:22:58;;;;;;;5.88;2.95;;;7.60;87.50;;;;;;5090697;28;20028;-63
2021/01/15 12:26:02;;;;;;;9.43;4.30;;;7.70;86.90;;;;;;5091654;28;20044;-64
2021/01/15 12:29:06;;;;;;;6.30;3.65;;;7.60;88.10;;;;;;5091779;28;20483;-63
2021/01/15 12:32:10;;;;;;;6.85;3.83;;;7.60;87.80;;;;;;5091943;28;20464;-62
2021/01/15 12:35:14;;;;;;;8.88;4.50;;;7.50;88.50;;;;;;5091835;28;20104;-62
2021/01/15 12:38:22;;;;;;;9.13;4.93;;;7.50;89.40;;;;;;5091327;28;20040;-63
2021/01/15 12:41:26;;;;;;;7.38;4.05;;;7.50;89.50;;;;;;5091451;28;20048;-63
2021/01/15 12:44:30;;;;;;;9.18;5.50;;;7.50;89.00;;;;;;5091771;28;20036;-64
2021/01/15 12:47:34;;;;;;;9.95;5.13;;;7.50;89.40;;;;;;5091536;28;20036;-64
2021/01/15 12:50:39;;;;;;;189.90;97.63;;;7.40;89.20;;;;;;5091454;28;20048;-66
2021/01/15 12:53:43;;;;;;;11.98;5.15;;;7.50;90.90;;;;;;5091290;28;20499;-66
2021/01/15 12:56:47;;;;;;;7.97;3.90;;;7.50;87.80;;;;;;5090964;28;20063;-66
2021/01/15 12:59:50;;;;;;;6.90;3.72;;;7.50;85.00;;;;;;5091142;28;20032;-66
2021/01/15 13:02:54;;;;;;;6.45;3.45;;;7.60;83.60;;;;;;5091501;28;20365;-65
2021/01/15 13:05:58;;;;;;;6.55;3.22;;;7.50;83.90;;;;;;5090438;28;20048;-65
2021/01/15 13:09:05;;;;;;;8.55;3.97;;;7.50;84.60;;;;;;5091199;28;20376;-65
2021/01/15 13:12:09;;;;;;;10.20;4.00;;;7.60;85.00;;;;;;5091451;28;20040;-63
2021/01/15 13:15:14;;;;;;;6.38;4.10;;;7.60;86.00;;;;;;5090915;28;20490;-63
2021/01/15 13:18:18;;;;;;;6.40;3.80;;;7.50;87.20;;;;;;5090891;28;20380;-63
2021/01/15 13:21:22;;;;;;;5.05;3.05;;;7.60;87.20;;;;;;5091722;28;20032;-63
2021/01/15 13:24:26;;;;;;;5.38;3.28;;;7.50;86.80;;;;;;5095329;28;20400;-63
2021/01/15 13:27:30;;;;;;;4.63;3.05;;;7.30;85.80;;;;;;5094804;28;20380;-64
2021/01/15 13:30:35;;;;;;;4.75;2.78;;;7.30;85.30;;;;;;5095293;28;20369;-62
2021/01/15 13:33:39;;;;;;;3.45;2.50;;;7.30;84.70;;;;;;5094988;28;20040;-64
2021/01/15 13:36:43;;;;;;;4.45;2.85;;;7.40;83.60;;;;;;5094754;28;20592;-63
2021/01/15 13:39:47;;;;;;;7.32;4.82;;;7.40;82.90;;;;;;5095024;28;20495;-61
2021/01/15 13:42:58;;;;;;;4.20;2.60;;;7.30;83.90;;;;;;5095549;28;20032;-62
2021/01/15 13:46:02;;;;;;;4.50;2.35;;;7.40;82.10;;;;;;5095122;28;20040;-64
2021/01/15 13:49:06;;;;;;;4.82;2.80;;;7.40;82.30;;;;;;5094713;28;20368;-64
2021/01/15 13:52:10;;;;;;;5.00;3.10;;;7.40;81.90;;;;;;5094967;28;20491;-63
2021/01/15 13:55:16;;;;;;;4.95;3.00;;;7.50;85.30;;;;;;5094574;28;20024;-64
2021/01/15 13:58:22;;;;;;;5.63;3.20;;;7.50;81.00;;;;;;5094691;28;20036;-63
2021/01/15 14:01:26;;;;;;;4.25;2.45;;;7.70;85.20;;;;;;5094419;28;20036;-63
2021/01/15 14:04:30;;;;;;;4.53;2.10;;;8.00;85.80;;;;;;5094722;28;20040;-65
2021/01/15 14:07:38;;;;;;;4.65;2.67;;;8.00;79.70;;;;;;5094678;28;20479;-65
2021/01/15 14:10:43;;;;;;;3.03;2.03;;;7.80;79.30;;;;;;5094793;28;20040;-67
2021/01/15 14:13:47;;;;;;;4.50;2.35;;;7.80;80.30;;;;;;5094448;28;20487;-65
2021/01/15 14:16:52;;;;;;;6.30;3.42;;;7.80;79.30;;;;;;5094342;28;20032;-64
2021/01/15 14:19:57;;;;;;;7.40;4.07;;;7.80;79.60;;;;;;5094095;28;20040;-65
2021/01/15 14:23:00;;;;;;;5.65;3.22;;;7.70;81.20;;;;;;5094485;28;20361;-65
2021/01/15 14:26:04;;;;;;;4.40;3.10;;;7.70;80.60;;;;;;5094630;28;20047;-65
2021/01/15 14:29:09;;;;;;;19.52;11.18;;;7.60;78.90;;;;;;5094178;28;20036;-64
2021/01/15 14:32:13;;;;;;;6.22;3.40;;;7.70;78.80;;;;;;5092651;28;20047;-63
2021/01/15 14:35:18;;;;;;;6.80;4.03;;;7.80;78.10;;;;;;5094045;28;20040;-64
2021/01/15 14:38:22;;;;;;;6.50;3.60;;;7.80;77.60;;;;;;5093938;28;20048;-64
2021/01/15 14:41:26;;;;;;;6.70;3.88;;;7.80;78.20;;;;;;5094194;28;20044;-65
2021/01/15 14:44:30;;;;;;;5.60;3.72;;;7.80;78.40;;;;;;5093735;28;20039;-69
2021/01/15 14:47:34;;;;;;;5.43;3.53;;;7.80;78.00;;;;;;5093478;28;20602;-66
2021/01/15 14:50:38;;;;;;;6.85;4.63;;;7.80;77.00;;;;;;5093730;28;20032;-65
2021/01/15 14:53:42;;;;;;;5.28;3.78;;;7.80;76.50;;;;;;5093356;28;20040;-66
2021/01/15 14:56:45;;;;;;;7.93;4.15;;;7.80;76.20;;;;;;5093153;28;20040;-67
2021/01/15 14:59:49;;;;;;;7.13;3.30;;;7.70;76.30;;;;;;5092687;28;20047;-65
2021/01/15 15:02:54;;;;;;;5.55;3.22;;;7.70;74.40;;;;;;5093163;28;20377;-71
2021/01/15 15:05:58;;;;;;;5.68;3.53;;;7.60;75.70;;;;;;5092971;28;20036;-63
2021/01/15 15:09:02;;;;;;;5.97;3.00;;;7.50;75.50;;;;;;5093012;28;20044;-61
2021/01/15 15:12:06;;;;;;;4.85;2.50;;;7.60;75.30;;;;;;5093221;28;20051;-64
2021/01/15 15:15:11;;;;;;;3.70;2.45;;;7.50;74.40;;;;;;5080990;28;20032;-60
2021/01/15 15:18:14;;;;;;;6.20;3.70;;;7.50;75.40;;;;;;5093173;28;20460;-63
2021/01/15 15:21:19;;;;;;;3.22;2.90;;;7.50;74.80;;;;;;5092952;28;20480;-60
2021/01/15 15:24:24;;;;;;;4.30;3.38;;;7.60;74.60;;;;;;5093127;28;20032;-63
2021/01/15 15:27:28;;;;;;;7.80;4.13;;;7.70;74.40;;;;;;5092559;28;20048;-62
2021/01/15 15:30:32;;;;;;;8.27;4.53;;;7.70;74.50;;;;;;5092658;28;20394;-62
2021/01/15 15:33:40;;;;;;;6.35;4.35;;;7.70;75.70;;;;;;5092902;28;20044;-63
2021/01/15 15:36:44;;;;;;;6.72;4.32;;;7.70;76.00;;;;;;5092641;28;20040;-64
2021/01/15 15:39:48;;;;;;;7.15;4.20;;;7.70;74.90;;;;;;5092804;28;20369;-62
2021/01/15 15:42:53;;;;;;;6.00;4.13;;;7.80;75.90;;;;;;5092153;28;20047;-63
2021/01/15 15:45:57;;;;;;;6.35;3.80;;;7.80;74.90;;;;;;5091228;28;20040;-63
2021/01/15 15:49:01;;;;;;;6.32;4.00;;;7.70;74.70;;;;;;5092700;28;20040;-63
2021/01/15 15:52:05;;;;;;;7.82;4.40;;;7.70;74.30;;;;;;5092500;28;20051;-63
2021/01/15 15:55:09;;;;;;;7.95;4.25;;;7.60;74.80;;;;;;5092593;28;20028;-62
2021/01/15 15:58:13;;;;;;;6.85;3.50;;;7.60;73.90;;;;;;5092691;28;20032;-63
2021/01/15 16:01:17;;;;;;;5.60;4.30;;;7.60;73.20;;;;;;5092388;28;20039;-64
2021/01/15 16:04:21;;;;;;;7.70;5.07;;;7.70;73.10;;;;;;5092102;28;20036;-63
2021/01/15 16:07:25;;;;;;;6.97;4.50;;;7.60;72.70;;;;;;5091956;28;20476;-63
2021/01/15 16:10:29;;;;;;;11.02;6.13;;;7.50;73.50;;;;;;5091779;28;20036;-63
2021/01/15 16:13:33;;;;;;;6.78;3.90;;;7.40;73.60;;;;;;5092093;28;20051;-61
2021/01/15 16:16:38;;;;;;;11.38;6.18;;;7.30;73.90;;;;;;5091800;28;20035;-62
2021/01/15 16:19:42;;;;;;;17.77;9.07;;;7.40;75.30;;;;;;5091523;28;20047;-62